Terminal Aerodrome Forecast
Issued by NWS

Home | Current Version | Previous Version | Text Only | Print | Product List | Glossary On
Versions: 1 2 3 4 5 6 7 8 9 10 11 12 13 14 15 16 17 18 19 20 21
000
FTUS45 KBOU 200436 AAC
TAFBJC
TAF AMD
KBJC 200436Z 2005/2024 16010KT P6SM FEW100 SCT200
     FM200600 21006KT P6SM FEW200
     FM201500 VRB05KT P6SM SCT220
     FM201900 08007KT P6SM FEW120 SCT220
     FM202200 03008KT P6SM FEW120 SCT220=

USA.gov is the U.S. government's official web portal to all federal, state and local government web resources and services.